createdAt,value
2019-04-28T00:02:11.882Z,25.35
2019-04-28T00:04:45.631Z,25.35
2019-04-28T00:07:19.452Z,25.34
2019-04-28T00:09:53.392Z,25.35
2019-04-28T00:12:27.412Z,25.34
2019-04-28T00:15:02.434Z,25.33
2019-04-28T00:17:36.588Z,25.34
2019-04-28T00:20:13.811Z,25.34
2019-04-28T00:23:01.404Z,25.33
2019-04-28T00:25:41.090Z,25.33
2019-04-28T00:28:14.834Z,25.34
2019-04-28T00:30:48.768Z,25.34
2019-04-28T00:33:22.966Z,25.34
2019-04-28T00:35:56.703Z,25.33
2019-04-28T00:38:31.631Z,25.33
2019-04-28T00:41:05.941Z,25.33
2019-04-28T00:43:41.679Z,25.34
2019-04-28T00:46:16.702Z,25.33
2019-04-28T00:48:50.841Z,25.34
2019-04-28T00:51:24.751Z,25.33
2019-04-28T00:53:58.591Z,25.33
2019-04-28T00:56:32.627Z,25.33
2019-04-28T00:59:06.447Z,25.32
2019-04-28T01:01:46.485Z,25.33
2019-04-28T01:04:21.953Z,25.33
2019-04-28T01:06:55.728Z,25.32
2019-04-28T01:09:31.476Z,25.31
2019-04-28T01:12:05.126Z,25.32
2019-04-28T01:14:38.840Z,25.32
2019-04-28T01:17:19.802Z,25.32
2019-04-28T01:19:55.525Z,25.31
2019-04-28T01:22:30.057Z,25.32
2019-04-28T01:25:04.399Z,25.31
2019-04-28T01:27:57.028Z,25.31
2019-04-28T01:30:50.060Z,25.31
2019-04-28T01:33:42.788Z,25.31
2019-04-28T01:36:16.607Z,25.31
2019-04-28T01:38:50.302Z,25.31
2019-04-28T01:41:24.069Z,25.31
2019-04-28T01:43:57.860Z,25.31
2019-04-28T01:46:32.262Z,25.31
2019-04-28T01:49:06.062Z,25.31
2019-04-28T01:51:41.471Z,25.31
2019-04-28T01:54:15.416Z,25.30
2019-04-28T01:56:50.253Z,25.31
2019-04-28T01:59:24.135Z,25.30
2019-04-28T02:01:57.789Z,25.29
2019-04-28T02:04:32.502Z,25.29
2019-04-28T02:07:06.463Z,25.30
2019-04-28T02:09:40.178Z,25.31
2019-04-28T02:12:13.908Z,25.30
2019-04-28T02:14:47.656Z,25.29
2019-04-28T02:17:22.029Z,25.29
2019-04-28T02:19:55.858Z,25.29
2019-04-28T02:22:35.196Z,25.30
2019-04-28T02:25:09.993Z,25.29
2019-04-28T02:27:43.669Z,25.29
2019-04-28T02:30:17.406Z,25.28
2019-04-28T02:32:51.851Z,25.28
2019-04-28T02:35:25.633Z,25.28
2019-04-28T02:38:00.110Z,25.29
2019-04-28T02:40:33.997Z,25.28
2019-04-28T02:43:07.879Z,25.28
2019-04-28T02:45:41.800Z,25.28
2019-04-28T02:48:21.242Z,25.28
2019-04-28T02:51:11.060Z,25.27
2019-04-28T02:53:51.221Z,25.28
2019-04-28T02:56:24.629Z,25.28
2019-04-28T02:59:00.845Z,25.28
2019-04-28T03:01:33.890Z,25.27
2019-04-28T03:04:12.147Z,25.28
2019-04-28T03:06:44.617Z,25.28
2019-04-28T03:09:20.256Z,25.28
2019-04-28T03:11:53.753Z,25.28
2019-04-28T03:14:29.713Z,25.28
2019-04-28T03:17:03.121Z,25.28
2019-04-28T03:19:36.748Z,25.28
2019-04-28T03:22:11.474Z,25.28
2019-04-28T03:24:47.478Z,25.28
2019-04-28T03:27:31.641Z,25.28
2019-04-28T03:30:27.070Z,25.28
2019-04-28T03:33:11.088Z,25.27
2019-04-28T03:35:37.636Z,25.28
2019-04-28T03:38:11.489Z,25.28
2019-04-28T03:40:45.262Z,25.27
2019-04-28T03:43:21.222Z,25.27
2019-04-28T03:46:02.809Z,25.27
2019-04-28T03:48:35.187Z,25.28
2019-04-28T03:51:10.742Z,25.27
2019-04-28T03:53:44.269Z,25.27
2019-04-28T03:56:17.895Z,25.27
2019-04-28T03:58:51.903Z,25.26
2019-04-28T04:01:25.647Z,25.28
2019-04-28T04:04:01.254Z,25.27
2019-04-28T04:06:35.887Z,25.27
2019-04-28T04:09:11.212Z,25.26
2019-04-28T04:11:52.423Z,25.27
2019-04-28T04:14:37.375Z,25.27
2019-04-28T04:17:25.019Z,25.27
2019-04-28T04:20:01.597Z,25.27
2019-04-28T04:22:34.115Z,25.27
2019-04-28T04:25:10.184Z,25.26
2019-04-28T04:27:43.245Z,25.26
2019-04-28T04:30:16.954Z,25.26
2019-04-28T04:32:50.830Z,25.26
2019-04-28T04:35:24.634Z,25.27
2019-04-28T04:38:00.475Z,25.26
2019-04-28T04:40:33.902Z,25.26
2019-04-28T04:43:07.633Z,25.26
2019-04-28T04:45:41.395Z,25.26
2019-04-28T04:48:15.202Z,25.26
2019-04-28T04:50:51.048Z,25.26
2019-04-28T04:53:24.535Z,25.25
2019-04-28T04:56:00.318Z,25.26
2019-04-28T04:58:34.118Z,25.27
2019-04-28T05:01:25.308Z,25.27
2019-04-28T05:04:03.330Z,25.26
2019-04-28T05:06:39.788Z,25.26
2019-04-28T05:09:13.455Z,25.27
2019-04-28T05:11:47.355Z,25.27
2019-04-28T05:14:21.053Z,25.27
2019-04-28T05:16:54.790Z,25.28
2019-04-28T05:19:29.839Z,25.30
2019-04-28T05:22:04.142Z,25.31
2019-04-28T05:24:50.420Z,25.30
2019-04-28T05:27:25.479Z,25.29
2019-04-28T05:30:02.427Z,25.28
2019-04-28T05:32:42.483Z,25.27
2019-04-28T05:35:10.252Z,25.27
2019-04-28T05:37:44.129Z,25.26
2019-04-28T05:40:17.944Z,25.26
2019-04-28T05:43:01.263Z,25.26
2019-04-28T05:45:35.129Z,25.26
2019-04-28T05:48:11.245Z,25.25
2019-04-28T05:50:50.872Z,25.27
2019-04-28T05:53:33.816Z,25.29
2019-04-28T05:56:23.053Z,25.27
2019-04-28T05:59:00.863Z,25.28
2019-04-28T06:01:53.487Z,25.28
2019-04-28T06:04:30.453Z,25.28
2019-04-28T06:07:12.186Z,25.28
2019-04-28T06:09:50.127Z,25.27
2019-04-28T06:12:23.780Z,25.27
2019-04-28T06:14:57.406Z,25.27
2019-04-28T06:17:31.322Z,25.27
2019-04-28T06:20:05.356Z,25.27
2019-04-28T06:22:39.053Z,25.28
2019-04-28T06:25:13.054Z,25.27
2019-04-28T06:27:46.858Z,25.27
2019-04-28T06:30:20.587Z,25.28
2019-04-28T06:33:06.842Z,25.27
2019-04-28T06:35:29.888Z,25.27
2019-04-28T06:38:03.708Z,25.27
2019-04-28T06:40:37.366Z,25.27
2019-04-28T06:43:12.603Z,25.27
2019-04-28T06:45:46.369Z,25.27
2019-04-28T06:48:20.081Z,25.26
2019-04-28T06:50:53.744Z,25.27
2019-04-28T06:53:27.488Z,25.27
2019-04-28T06:56:01.234Z,25.27
2019-04-28T06:58:34.855Z,25.27
2019-04-28T07:01:08.726Z,25.27
2019-04-28T07:03:42.480Z,25.28
2019-04-28T07:06:16.284Z,25.26
2019-04-28T07:08:49.935Z,25.27
2019-04-28T07:11:23.715Z,25.27
2019-04-28T07:13:57.557Z,25.26
2019-04-28T07:16:31.251Z,25.27
2019-04-28T07:19:04.981Z,25.27
2019-04-28T07:21:43.878Z,25.26
2019-04-28T07:24:17.586Z,25.26
2019-04-28T07:26:51.339Z,25.26
2019-04-28T07:29:25.136Z,25.27
2019-04-28T07:31:58.949Z,25.28
2019-04-28T07:34:32.885Z,25.27
2019-04-28T07:37:06.669Z,25.28
2019-04-28T07:39:40.617Z,25.28
2019-04-28T07:42:14.220Z,25.30
2019-04-28T07:44:48.013Z,25.29
2019-04-28T07:47:21.739Z,25.30
2019-04-28T07:49:55.359Z,25.30
2019-04-28T07:52:47.894Z,25.29
2019-04-28T07:55:21.644Z,25.31
2019-04-28T07:57:55.346Z,25.32
2019-04-28T08:00:30.646Z,25.30
2019-04-28T08:03:04.394Z,25.30
2019-04-28T08:05:38.096Z,25.29
2019-04-28T08:08:11.994Z,25.28
2019-04-28T08:10:45.767Z,25.27
2019-04-28T08:13:19.636Z,25.26
2019-04-28T08:15:53.751Z,25.26
2019-04-28T08:18:27.368Z,25.25
2019-04-28T08:21:01.659Z,25.24
2019-04-28T08:23:46.549Z,25.23
2019-04-28T08:26:10.963Z,25.23
2019-04-28T08:28:44.693Z,25.23
2019-04-28T08:31:20.295Z,25.22
2019-04-28T08:34:03.030Z,25.22
2019-04-28T08:36:37.145Z,25.23
2019-04-28T08:39:11.104Z,25.21
2019-04-28T08:41:44.846Z,25.21
2019-04-28T08:44:18.639Z,25.21
2019-04-28T08:46:52.726Z,25.20
2019-04-28T08:49:26.572Z,25.21
2019-04-28T08:52:00.293Z,25.22
2019-04-28T08:54:35.463Z,25.21
2019-04-28T08:57:10.646Z,25.22
2019-04-28T08:59:45.930Z,25.23
2019-04-28T09:02:19.786Z,25.22
2019-04-28T09:04:53.466Z,25.22
2019-04-28T09:07:27.170Z,25.21
2019-04-28T09:10:00.993Z,25.25
2019-04-28T09:12:34.577Z,25.28
2019-04-28T09:15:08.733Z,25.29
2019-04-28T09:17:43.093Z,25.29
2019-04-28T09:20:16.796Z,25.28
2019-04-28T09:22:50.736Z,25.28
2019-04-28T09:25:25.994Z,25.30
2019-04-28T09:27:59.746Z,25.27
2019-04-28T09:30:33.678Z,25.29
2019-04-28T09:33:07.538Z,25.28
2019-04-28T09:35:41.657Z,25.28
2019-04-28T09:38:15.469Z,25.28
2019-04-28T09:40:49.274Z,25.28
2019-04-28T09:43:27.559Z,25.30
2019-04-28T09:46:07.898Z,25.30
2019-04-28T09:48:41.724Z,25.29
2019-04-28T09:51:15.530Z,25.28
2019-04-28T09:53:49.259Z,25.29
2019-04-28T09:56:23.044Z,25.30
2019-04-28T09:58:56.952Z,25.30
2019-04-28T10:01:30.624Z,25.31
2019-04-28T10:04:04.296Z,25.33
2019-04-28T10:06:38.016Z,25.34
2019-04-28T10:09:11.685Z,25.36
2019-04-28T10:11:45.422Z,25.35
2019-04-28T10:14:19.287Z,25.35
2019-04-28T10:16:54.803Z,25.37
2019-04-28T10:19:28.718Z,25.37
2019-04-28T10:22:02.938Z,25.37
2019-04-28T10:24:36.706Z,25.37
2019-04-28T10:27:11.082Z,25.38
2019-04-28T10:29:44.868Z,25.37
2019-04-28T10:32:18.678Z,25.38
2019-04-28T10:34:55.044Z,25.37
2019-04-28T10:37:28.188Z,25.37
2019-04-28T10:40:06.527Z,25.37
2019-04-28T10:42:40.274Z,25.37
2019-04-28T10:45:18.012Z,25.35
2019-04-28T10:47:52.202Z,25.35
2019-04-28T10:50:25.904Z,25.35
2019-04-28T10:52:59.774Z,25.36
2019-04-28T10:55:33.610Z,25.37
2019-04-28T10:58:07.472Z,25.38
2019-04-28T11:00:41.963Z,25.37
2019-04-28T11:03:15.722Z,25.38
2019-04-28T11:05:49.486Z,25.38
2019-04-28T11:08:33.862Z,25.38
2019-04-28T11:11:14.710Z,25.38
2019-04-28T11:13:48.282Z,25.38
2019-04-28T11:16:25.408Z,25.36
2019-04-28T11:18:59.047Z,25.38
2019-04-28T11:21:33.167Z,25.39
2019-04-28T11:24:06.780Z,25.38
2019-04-28T11:26:40.630Z,25.38
2019-04-28T11:29:14.462Z,25.38
2019-04-28T11:31:48.224Z,25.39
2019-04-28T11:34:34.780Z,25.39
2019-04-28T11:37:08.642Z,25.40
2019-04-28T11:39:44.334Z,25.39
2019-04-28T11:42:18.116Z,25.38
2019-04-28T11:44:52.246Z,25.40
2019-04-28T11:47:26.172Z,25.39
2019-04-28T11:49:59.967Z,25.34
2019-04-28T11:52:33.786Z,25.36
2019-04-28T11:55:07.771Z,25.39
2019-04-28T11:57:43.427Z,25.33
2019-04-28T12:00:25.745Z,24.15
2019-04-28T12:02:59.515Z,24.09
2019-04-28T12:05:41.157Z,24.55
2019-04-28T12:08:16.361Z,24.85
2019-04-28T12:11:12.069Z,24.94
2019-04-28T12:14:09.034Z,25.01
2019-04-28T12:17:01.911Z,24.97
2019-04-28T12:19:58.180Z,24.97
2019-04-28T12:22:32.040Z,24.92
2019-04-28T12:25:07.697Z,24.93
2019-04-28T12:27:42.071Z,24.99
2019-04-28T12:30:18.049Z,24.98
2019-04-28T12:32:52.217Z,24.97
2019-04-28T12:35:25.984Z,24.82
2019-04-28T12:37:59.877Z,24.84
2019-04-28T12:40:33.829Z,24.98
2019-04-28T12:43:08.814Z,24.95
2019-04-28T12:45:42.980Z,24.97
2019-04-28T12:48:17.064Z,25.00
2019-04-28T12:50:52.132Z,25.12
2019-04-28T12:53:26.985Z,25.11
2019-04-28T12:56:00.991Z,24.98
2019-04-28T12:58:35.923Z,25.04
2019-04-28T13:01:33.288Z,25.12
2019-04-28T13:04:17.861Z,25.19
2019-04-28T13:07:09.082Z,25.24
2019-04-28T13:09:43.988Z,25.26
2019-04-28T13:12:17.836Z,25.25
2019-04-28T13:14:52.080Z,25.25
2019-04-28T13:17:27.917Z,25.26
2019-04-28T13:20:02.264Z,25.28
2019-04-28T13:22:36.172Z,25.28
2019-04-28T13:25:12.265Z,25.27
2019-04-28T13:27:46.214Z,25.28
2019-04-28T13:30:21.031Z,25.29
2019-04-28T13:32:54.941Z,25.31
2019-04-28T13:35:29.858Z,25.31
2019-04-28T13:38:03.733Z,25.33
2019-04-28T13:40:39.541Z,25.10
2019-04-28T13:43:14.179Z,24.99
2019-04-28T13:45:48.023Z,24.93
2019-04-28T13:48:22.026Z,24.93
2019-04-28T13:50:55.945Z,24.87
2019-04-28T13:53:29.684Z,24.88
2019-04-28T13:56:04.833Z,24.88
2019-04-28T13:58:59.774Z,24.83
2019-04-28T14:01:45.503Z,24.84
2019-04-28T14:04:40.793Z,24.83
2019-04-28T14:07:14.705Z,24.80
2019-04-28T14:09:48.452Z,24.75
2019-04-28T14:12:22.380Z,24.76
2019-04-28T14:14:58.037Z,24.78
2019-04-28T14:17:31.814Z,24.74
2019-04-28T14:20:06.175Z,24.76
2019-04-28T14:22:39.959Z,24.73
2019-04-28T14:25:13.542Z,24.73
2019-04-28T14:27:47.555Z,24.73
2019-04-28T14:30:21.516Z,24.71
2019-04-28T14:32:55.457Z,24.68
2019-04-28T14:35:29.094Z,24.67
2019-04-28T14:38:02.910Z,24.64
2019-04-28T14:40:36.719Z,24.66
2019-04-28T14:43:11.103Z,24.67
2019-04-28T14:45:44.938Z,24.64
2019-04-28T14:48:18.694Z,24.65
2019-04-28T14:50:52.344Z,24.66
2019-04-28T14:53:26.701Z,24.62
2019-04-28T14:56:00.611Z,24.62
2019-04-28T14:58:34.386Z,24.61
2019-04-28T15:01:21.752Z,24.63
2019-04-28T15:03:57.360Z,24.63
2019-04-28T15:06:55.484Z,24.60
2019-04-28T15:09:32.760Z,24.62
2019-04-28T15:12:07.404Z,24.63
2019-04-28T15:14:41.359Z,24.61
2019-04-28T15:17:15.074Z,24.62
2019-04-28T15:19:48.889Z,24.63
2019-04-28T15:22:23.142Z,24.60
2019-04-28T15:24:56.864Z,24.60
2019-04-28T15:27:30.580Z,24.56
2019-04-28T15:30:04.450Z,24.57
2019-04-28T15:32:38.130Z,24.58
2019-04-28T15:35:12.156Z,24.58
2019-04-28T15:37:45.984Z,24.55
2019-04-28T15:40:19.806Z,24.55
2019-04-28T15:42:53.439Z,24.55
2019-04-28T15:45:27.228Z,24.54
2019-04-28T15:48:00.954Z,24.51
2019-04-28T15:50:34.734Z,24.48
2019-04-28T15:53:08.519Z,24.49
2019-04-28T15:55:51.991Z,24.51
2019-04-28T15:58:33.196Z,24.48
2019-04-28T16:01:07.021Z,24.45
2019-04-28T16:03:40.866Z,24.43
2019-04-28T16:06:14.496Z,24.44
2019-04-28T16:08:48.203Z,24.43
2019-04-28T16:11:22.176Z,24.41
2019-04-28T16:13:56.071Z,24.42
2019-04-28T16:16:29.829Z,24.43
2019-04-28T16:19:03.587Z,24.43
2019-04-28T16:21:37.433Z,24.41
2019-04-28T16:24:11.192Z,24.40
2019-04-28T16:26:44.863Z,24.39
2019-04-28T16:29:18.637Z,24.38
2019-04-28T16:31:52.753Z,24.38
2019-04-28T16:34:26.482Z,24.37
2019-04-28T16:37:00.471Z,24.36
2019-04-28T16:39:34.394Z,24.37
2019-04-28T16:42:13.044Z,24.33
2019-04-28T16:44:50.642Z,24.35
2019-04-28T16:47:24.446Z,24.37
2019-04-28T16:49:59.569Z,24.45
2019-04-28T16:52:33.666Z,24.56
2019-04-28T16:55:35.197Z,24.65
2019-04-28T16:58:19.607Z,24.68
2019-04-28T17:01:30.371Z,24.71
2019-04-28T17:04:04.439Z,24.74
2019-04-28T17:06:38.246Z,24.77
2019-04-28T17:09:13.259Z,24.80
2019-04-28T17:11:46.895Z,24.84
2019-04-28T17:14:20.844Z,24.84
2019-04-28T17:16:54.648Z,24.86
2019-04-28T17:19:28.525Z,24.87
2019-04-28T17:22:02.222Z,24.87
2019-04-28T17:24:35.951Z,24.89
2019-04-28T17:27:09.745Z,24.93
2019-04-28T17:29:44.562Z,24.94
2019-04-28T17:32:18.313Z,24.96
2019-04-28T17:34:52.070Z,24.97
2019-04-28T17:37:25.891Z,24.98
2019-04-28T17:39:59.646Z,24.98
2019-04-28T17:42:33.829Z,24.99
2019-04-28T17:45:07.771Z,24.98
2019-04-28T17:47:41.861Z,24.99
2019-04-28T17:50:17.248Z,24.99
2019-04-28T17:52:50.855Z,24.98
2019-04-28T17:55:24.829Z,24.97
2019-04-28T17:57:58.483Z,24.96
2019-04-28T18:00:41.938Z,24.99
2019-04-28T18:03:22.356Z,25.03
2019-04-28T18:06:17.508Z,25.03
2019-04-28T18:08:44.933Z,25.04
2019-04-28T18:11:18.940Z,25.02
2019-04-28T18:13:53.114Z,25.02
2019-04-28T18:16:44.243Z,25.01
2019-04-28T18:19:18.545Z,25.02
2019-04-28T18:21:52.750Z,25.01
2019-04-28T18:24:26.383Z,25.01
2019-04-28T18:27:00.152Z,25.02
2019-04-28T18:29:33.795Z,25.05
2019-04-28T18:32:26.122Z,25.03
2019-04-28T18:35:05.883Z,25.03
2019-04-28T18:38:07.073Z,25.02
2019-04-28T18:40:59.399Z,25.03
2019-04-28T18:43:51.911Z,25.02
2019-04-28T18:46:28.740Z,25.03
2019-04-28T18:49:02.501Z,25.03
2019-04-28T18:51:36.443Z,25.02
2019-04-28T18:54:10.153Z,25.02
2019-04-28T18:56:44.168Z,25.02
2019-04-28T18:59:18.004Z,25.03
2019-04-28T19:02:01.585Z,25.02
2019-04-28T19:04:35.219Z,25.02
2019-04-28T19:07:10.557Z,25.03
2019-04-28T19:10:02.390Z,25.02
2019-04-28T19:12:53.810Z,25.02
2019-04-28T19:15:52.442Z,25.03
2019-04-28T19:18:31.023Z,25.02
2019-04-28T19:21:05.139Z,25.03
2019-04-28T19:23:38.934Z,25.03
2019-04-28T19:26:12.564Z,25.02
2019-04-28T19:28:46.422Z,25.02
2019-04-28T19:31:20.203Z,25.04
2019-04-28T19:33:54.007Z,25.03
2019-04-28T19:36:27.719Z,25.03
2019-04-28T19:39:03.557Z,25.03
2019-04-28T19:41:37.723Z,25.03
2019-04-28T19:44:11.520Z,25.03
2019-04-28T19:46:45.351Z,25.03
2019-04-28T19:49:19.362Z,25.03
2019-04-28T19:51:53.093Z,25.03
2019-04-28T19:54:30.878Z,25.02
2019-04-28T19:57:13.988Z,25.01
2019-04-28T20:00:05.454Z,25.02
2019-04-28T20:02:39.416Z,25.02
2019-04-28T20:05:13.138Z,25.02
2019-04-28T20:07:46.926Z,25.02
2019-04-28T20:10:20.667Z,25.02
2019-04-28T20:12:54.271Z,25.02
2019-04-28T20:15:28.134Z,25.02
2019-04-28T20:18:02.585Z,25.02
2019-04-28T20:20:36.273Z,25.02
2019-04-28T20:23:09.867Z,25.02
2019-04-28T20:25:43.662Z,25.01
2019-04-28T20:28:17.496Z,25.03
2019-04-28T20:30:51.114Z,25.02
2019-04-28T20:33:25.010Z,25.02
2019-04-28T20:36:03.228Z,25.01
2019-04-28T20:38:37.023Z,25.03
2019-04-28T20:41:23.290Z,25.02
2019-04-28T20:43:58.219Z,25.02
2019-04-28T20:46:32.654Z,25.02
2019-04-28T20:49:06.356Z,25.01
2019-04-28T20:51:40.195Z,25.02
2019-04-28T20:54:13.819Z,25.02
2019-04-28T20:56:47.405Z,25.02
2019-04-28T20:59:21.254Z,25.02
2019-04-28T21:01:55.036Z,25.02
2019-04-28T21:04:28.863Z,25.03
2019-04-28T21:07:02.926Z,25.02
2019-04-28T21:09:36.829Z,25.03
2019-04-28T21:12:10.631Z,25.03
2019-04-28T21:14:44.315Z,25.04
2019-04-28T21:17:18.224Z,25.03
2019-04-28T21:19:52.221Z,25.03
2019-04-28T21:22:25.935Z,25.04
2019-04-28T21:24:59.573Z,25.03
2019-04-28T21:27:33.409Z,25.03
2019-04-28T21:30:07.756Z,25.03
2019-04-28T21:32:41.584Z,25.04
2019-04-28T21:35:15.338Z,25.02
2019-04-28T21:37:49.053Z,25.03
2019-04-28T21:40:23.425Z,25.02
2019-04-28T21:43:16.001Z,25.03
2019-04-28T21:46:00.183Z,25.02
2019-04-28T21:48:58.731Z,25.03
2019-04-28T21:51:32.467Z,25.02
2019-04-28T21:54:06.149Z,25.02
2019-04-28T21:56:40.173Z,25.02
2019-04-28T21:59:13.895Z,25.02
2019-04-28T22:01:47.698Z,25.02
2019-04-28T22:04:21.694Z,25.02
2019-04-28T22:06:55.691Z,25.03
2019-04-28T22:09:29.521Z,25.05
2019-04-28T22:12:05.097Z,25.03
2019-04-28T22:14:38.884Z,25.02
2019-04-28T22:17:12.919Z,25.02
2019-04-28T22:19:46.852Z,25.01
2019-04-28T22:22:20.598Z,25.01
2019-04-28T22:25:16.899Z,25.02
2019-04-28T22:27:50.670Z,25.03
2019-04-28T22:30:24.490Z,25.03
2019-04-28T22:32:58.365Z,25.03
2019-04-28T22:35:32.043Z,25.02
2019-04-28T22:38:05.790Z,25.03
2019-04-28T22:40:39.687Z,25.03
2019-04-28T22:43:13.451Z,25.03
2019-04-28T22:45:47.368Z,25.03
2019-04-28T22:48:23.166Z,25.03
2019-04-28T22:50:56.957Z,25.02
2019-04-28T22:53:35.709Z,25.03
2019-04-28T22:56:28.323Z,25.04
2019-04-28T22:59:07.294Z,25.03
2019-04-28T23:01:43.909Z,25.03
2019-04-28T23:04:36.519Z,25.04
2019-04-28T23:07:10.605Z,25.05
2019-04-28T23:09:44.464Z,25.04
2019-04-28T23:12:18.335Z,25.04
2019-04-28T23:14:52.260Z,25.04
2019-04-28T23:17:26.011Z,25.04
2019-04-28T23:19:59.761Z,25.06
2019-04-28T23:22:47.553Z,25.07
2019-04-28T23:25:21.196Z,25.06
2019-04-28T23:27:54.973Z,25.06
2019-04-28T23:30:42.118Z,25.06
2019-04-28T23:33:15.765Z,25.05
2019-04-28T23:35:49.585Z,25.04
2019-04-28T23:38:23.434Z,25.05
2019-04-28T23:41:19.073Z,25.04
2019-04-28T23:43:52.958Z,25.04
2019-04-28T23:46:45.522Z,25.04
2019-04-28T23:49:19.408Z,25.04
2019-04-28T23:52:12.095Z,25.04
2019-04-28T23:54:47.783Z,25.03
2019-04-28T23:57:21.498Z,25.04
2019-04-28T23:59:55.303Z,25.03
